createdAt,value
2023-05-19T00:01:53.412Z,100.00
2023-05-19T00:04:21.335Z,100.00
2023-05-19T00:06:51.119Z,100.00
2023-05-19T00:09:18.174Z,100.00
2023-05-19T00:11:45.112Z,100.00
2023-05-19T00:14:12.034Z,100.00
2023-05-19T00:16:39.320Z,100.00
2023-05-19T00:19:06.637Z,100.00
2023-05-19T00:21:33.557Z,100.00
2023-05-19T00:24:00.339Z,100.00
2023-05-19T00:26:27.750Z,100.00
2023-05-19T00:28:54.514Z,100.00
2023-05-19T00:31:21.404Z,100.00
2023-05-19T00:33:48.198Z,100.00
2023-05-19T00:36:15.041Z,100.00
2023-05-19T00:38:41.772Z,100.00
2023-05-19T00:41:08.533Z,100.00
2023-05-19T00:43:35.409Z,100.00
2023-05-19T00:46:02.358Z,100.00
2023-05-19T00:48:29.272Z,100.00
2023-05-19T00:51:07.421Z,100.00
2023-05-19T00:53:34.367Z,100.00
2023-05-19T00:56:01.293Z,100.00
2023-05-19T00:58:30.418Z,100.00
2023-05-19T01:01:03.842Z,100.00
2023-05-19T01:03:35.728Z,100.00
2023-05-19T01:06:07.520Z,100.00
2023-05-19T01:08:35.183Z,100.00
2023-05-19T01:11:01.940Z,100.00
2023-05-19T01:13:28.780Z,100.00
2023-05-19T01:16:25.146Z,100.00
2023-05-19T01:19:11.037Z,100.00
2023-05-19T01:21:56.620Z,100.00
2023-05-19T01:24:23.329Z,100.00
2023-05-19T01:27:14.934Z,100.00
2023-05-19T01:30:03.193Z,100.00
2023-05-19T01:32:29.896Z,100.00
2023-05-19T01:34:56.758Z,100.00
2023-05-19T01:37:23.535Z,100.00
2023-05-19T01:39:50.508Z,100.00
2023-05-19T01:42:17.296Z,100.00
2023-05-19T01:44:44.239Z,100.00
2023-05-19T01:47:11.180Z,100.00
2023-05-19T01:49:38.077Z,100.00
2023-05-19T01:52:05.079Z,100.00
2023-05-19T01:54:31.818Z,100.00
2023-05-19T01:57:19.699Z,100.00
2023-05-19T01:59:56.957Z,100.00
2023-05-19T02:02:32.220Z,100.00
2023-05-19T02:05:03.212Z,100.00
2023-05-19T02:07:42.501Z,100.00
2023-05-19T02:10:15.215Z,100.00
2023-05-19T02:12:41.985Z,100.00
2023-05-19T02:15:12.054Z,100.00
2023-05-19T02:17:41.652Z,100.00
2023-05-19T02:20:12.025Z,100.00
2023-05-19T02:22:38.994Z,100.00
2023-05-19T02:25:06.105Z,100.00
2023-05-19T02:27:33.944Z,100.00
2023-05-19T02:30:00.771Z,100.00
2023-05-19T02:32:27.662Z,100.00
2023-05-19T02:34:56.589Z,100.00
2023-05-19T02:37:28.655Z,100.00
2023-05-19T02:39:55.639Z,100.00
2023-05-19T02:42:22.463Z,100.00
2023-05-19T02:44:49.314Z,100.00
2023-05-19T02:47:16.032Z,100.00
2023-05-19T02:49:44.192Z,100.00
2023-05-19T02:52:12.152Z,100.00
2023-05-19T02:54:38.935Z,100.00
2023-05-19T02:57:05.713Z,100.00
2023-05-19T02:59:32.410Z,100.00
2023-05-19T03:02:02.431Z,100.00
2023-05-19T03:04:29.922Z,100.00
2023-05-19T03:06:57.722Z,100.00
2023-05-19T03:09:24.638Z,100.00
2023-05-19T03:11:51.477Z,100.00
2023-05-19T03:14:18.836Z,100.00
2023-05-19T03:16:45.989Z,100.00
2023-05-19T03:19:13.013Z,100.00
2023-05-19T03:21:39.839Z,100.00
2023-05-19T03:24:07.209Z,100.00
2023-05-19T03:26:33.976Z,100.00
2023-05-19T03:29:01.074Z,100.00
2023-05-19T03:31:28.503Z,100.00
2023-05-19T03:33:55.376Z,100.00
2023-05-19T03:36:22.691Z,100.00
2023-05-19T03:38:49.539Z,100.00
2023-05-19T03:41:16.380Z,100.00
2023-05-19T03:43:43.232Z,100.00
2023-05-19T03:46:10.104Z,100.00
2023-05-19T03:48:36.969Z,100.00
2023-05-19T03:51:04.486Z,100.00
2023-05-19T03:53:31.276Z,100.00
2023-05-19T03:55:58.066Z,100.00
2023-05-19T03:58:24.996Z,100.00
2023-05-19T04:00:51.952Z,100.00
2023-05-19T04:03:18.878Z,100.00
2023-05-19T04:05:45.754Z,100.00
2023-05-19T04:08:12.555Z,100.00
2023-05-19T04:10:39.374Z,100.00
2023-05-19T04:13:06.293Z,100.00
2023-05-19T04:15:33.160Z,100.00
2023-05-19T04:17:59.992Z,100.00
2023-05-19T04:20:26.843Z,100.00
2023-05-19T04:22:53.655Z,100.00
2023-05-19T04:25:20.585Z,100.00
2023-05-19T04:27:48.597Z,100.00
2023-05-19T04:30:22.340Z,100.00
2023-05-19T04:32:50.995Z,100.00
2023-05-19T04:35:17.971Z,100.00
2023-05-19T04:37:48.544Z,100.00
2023-05-19T04:40:16.120Z,100.00
2023-05-19T04:42:45.859Z,100.00
2023-05-19T04:45:14.126Z,100.00
2023-05-19T04:47:42.081Z,100.00
2023-05-19T04:50:11.189Z,100.00
2023-05-19T04:52:38.087Z,100.00
2023-05-19T04:55:05.265Z,100.00
2023-05-19T04:57:32.224Z,98.87
2023-05-19T05:00:00.469Z,98.18
2023-05-19T05:02:30.126Z,98.12
2023-05-19T05:04:56.985Z,97.14
2023-05-19T05:07:23.977Z,97.60
2023-05-19T05:09:50.941Z,96.80
2023-05-19T05:12:18.900Z,95.74
2023-05-19T05:14:46.148Z,94.47
2023-05-19T05:17:13.840Z,93.36
2023-05-19T05:19:40.981Z,93.25
2023-05-19T05:22:08.208Z,92.14
2023-05-19T05:24:35.388Z,91.00
2023-05-19T05:27:02.216Z,90.90
2023-05-19T05:29:29.041Z,89.96
2023-05-19T05:31:56.042Z,88.99
2023-05-19T05:34:22.872Z,87.17
2023-05-19T05:36:49.806Z,87.14
2023-05-19T05:39:16.615Z,86.12
2023-05-19T05:41:43.438Z,84.95
2023-05-19T05:44:10.355Z,83.32
2023-05-19T05:46:37.336Z,82.67
2023-05-19T05:49:04.377Z,81.53
2023-05-19T05:51:33.028Z,82.16
2023-05-19T05:54:00.003Z,81.86
2023-05-19T05:56:27.804Z,79.48
2023-05-19T05:58:54.644Z,78.22
2023-05-19T06:01:22.025Z,77.73
2023-05-19T06:03:48.879Z,77.58
2023-05-19T06:06:15.787Z,77.37
2023-05-19T06:08:42.628Z,76.58
2023-05-19T06:11:09.607Z,75.99
2023-05-19T06:13:36.771Z,74.12
2023-05-19T06:16:03.846Z,73.20
2023-05-19T06:18:30.762Z,72.84
2023-05-19T06:20:57.600Z,70.93
2023-05-19T06:23:25.349Z,69.10
2023-05-19T06:25:52.366Z,68.44
2023-05-19T06:28:19.180Z,66.28
2023-05-19T06:30:46.069Z,64.82
2023-05-19T06:33:12.899Z,65.81
2023-05-19T06:35:39.842Z,65.21
2023-05-19T06:38:07.922Z,65.25
2023-05-19T06:40:35.059Z,64.11
2023-05-19T06:43:02.091Z,63.99
2023-05-19T06:45:29.084Z,63.74
2023-05-19T06:47:58.467Z,61.42
2023-05-19T06:50:25.701Z,59.21
2023-05-19T06:52:52.722Z,58.09
2023-05-19T06:55:19.757Z,58.80
2023-05-19T06:57:46.621Z,58.15
2023-05-19T07:00:16.784Z,59.02
2023-05-19T07:02:45.237Z,58.86
2023-05-19T07:05:12.200Z,59.87
2023-05-19T07:07:39.099Z,60.72
2023-05-19T07:10:06.563Z,60.10
2023-05-19T07:12:33.387Z,61.24
2023-05-19T07:15:00.308Z,61.98
2023-05-19T07:17:27.140Z,64.50
2023-05-19T07:19:54.054Z,61.83
2023-05-19T07:22:21.346Z,62.41
2023-05-19T07:24:48.185Z,64.14
2023-05-19T07:27:15.115Z,63.46
2023-05-19T07:29:41.962Z,63.61
2023-05-19T07:32:08.877Z,64.73
2023-05-19T07:34:35.791Z,64.22
2023-05-19T07:37:03.513Z,65.36
2023-05-19T07:39:32.392Z,67.27
2023-05-19T07:41:59.401Z,67.15
2023-05-19T07:44:27.254Z,67.98
2023-05-19T07:46:54.662Z,67.13
2023-05-19T07:49:21.486Z,68.82
2023-05-19T07:51:48.799Z,68.30
2023-05-19T07:54:15.630Z,68.23
2023-05-19T07:56:42.458Z,69.23
2023-05-19T07:59:09.396Z,70.77
2023-05-19T08:01:36.296Z,69.84
2023-05-19T08:04:03.549Z,69.88
2023-05-19T08:06:31.834Z,70.65
2023-05-19T08:08:58.738Z,71.16
2023-05-19T08:11:25.901Z,71.86
2023-05-19T08:13:52.846Z,72.44
2023-05-19T08:16:19.796Z,71.68
2023-05-19T08:18:46.727Z,71.80
2023-05-19T08:21:13.562Z,71.91
2023-05-19T08:23:40.510Z,70.65
2023-05-19T08:26:07.404Z,71.15
2023-05-19T08:28:34.385Z,71.42
2023-05-19T08:31:01.317Z,71.82
2023-05-19T08:33:28.433Z,72.39
2023-05-19T08:35:58.182Z,73.36
2023-05-19T08:38:26.387Z,73.14
2023-05-19T08:40:53.338Z,73.46
2023-05-19T08:43:20.258Z,74.08
2023-05-19T08:45:48.462Z,72.09
2023-05-19T08:48:16.993Z,72.62
2023-05-19T08:50:47.429Z,74.54
2023-05-19T08:53:32.513Z,73.15
2023-05-19T08:56:22.614Z,73.03
2023-05-19T08:58:50.235Z,72.13
2023-05-19T09:01:17.802Z,72.93
2023-05-19T09:03:49.910Z,72.78
2023-05-19T09:06:17.178Z,71.45
2023-05-19T09:08:44.117Z,71.90
2023-05-19T09:11:11.095Z,72.85
2023-05-19T09:13:37.841Z,72.57
2023-05-19T09:16:04.763Z,71.43
2023-05-19T09:18:31.864Z,71.70
2023-05-19T09:21:00.350Z,71.67
2023-05-19T09:23:36.368Z,71.64
2023-05-19T09:26:04.508Z,69.47
2023-05-19T09:28:33.412Z,70.14
2023-05-19T09:31:04.640Z,69.24
2023-05-19T09:33:33.807Z,68.97
2023-05-19T09:36:00.746Z,70.12
2023-05-19T09:38:27.840Z,71.44
2023-05-19T09:40:57.253Z,71.05
2023-05-19T09:43:24.180Z,71.08
2023-05-19T09:46:12.955Z,70.36
2023-05-19T09:48:41.121Z,71.18
2023-05-19T09:51:08.317Z,72.80
2023-05-19T09:53:35.098Z,72.02
2023-05-19T09:56:02.306Z,72.93
2023-05-19T09:58:34.769Z,73.38
2023-05-19T10:01:01.743Z,72.48
2023-05-19T10:03:28.484Z,72.31
2023-05-19T10:05:55.323Z,73.10
2023-05-19T10:08:24.154Z,72.89
2023-05-19T10:10:50.926Z,71.65
2023-05-19T10:13:17.670Z,72.68
2023-05-19T10:15:57.443Z,74.01
2023-05-19T10:18:26.697Z,73.43
2023-05-19T10:20:53.558Z,75.02
2023-05-19T10:23:20.273Z,73.66
2023-05-19T10:25:47.872Z,75.36
2023-05-19T10:28:16.363Z,76.15
2023-05-19T10:30:45.546Z,75.78
2023-05-19T10:33:19.020Z,76.42
2023-05-19T10:35:54.594Z,77.38
2023-05-19T10:38:43.082Z,77.05
2023-05-19T10:41:24.766Z,78.59
2023-05-19T10:44:31.052Z,78.41
2023-05-19T10:46:57.853Z,79.79
2023-05-19T10:49:24.622Z,80.04
2023-05-19T10:51:56.164Z,79.93
2023-05-19T10:54:43.619Z,80.19
2023-05-19T10:57:15.016Z,80.66
2023-05-19T10:59:42.123Z,80.77
2023-05-19T11:02:09.218Z,81.86
2023-05-19T11:04:58.459Z,82.54
2023-05-19T11:07:25.280Z,82.18
2023-05-19T11:09:52.449Z,81.94
2023-05-19T11:12:24.799Z,80.11
2023-05-19T11:14:55.528Z,80.24
2023-05-19T11:17:23.802Z,80.05
2023-05-19T11:19:57.636Z,80.32
2023-05-19T11:22:26.161Z,79.38
2023-05-19T11:24:54.775Z,78.60
2023-05-19T11:27:22.962Z,78.45
2023-05-19T11:29:49.921Z,77.78
2023-05-19T11:32:16.721Z,78.01
2023-05-19T11:34:44.674Z,78.36
2023-05-19T11:37:11.568Z,76.61
2023-05-19T11:39:39.348Z,76.62
2023-05-19T11:42:06.378Z,75.89
2023-05-19T11:44:33.166Z,76.91
2023-05-19T11:47:00.182Z,76.06
2023-05-19T11:49:29.491Z,77.73
2023-05-19T11:51:56.340Z,76.28
2023-05-19T11:54:36.779Z,75.12
2023-05-19T11:57:03.949Z,75.39
2023-05-19T11:59:36.035Z,74.97
2023-05-19T12:02:14.094Z,74.02
2023-05-19T12:04:41.094Z,73.68
2023-05-19T12:07:08.284Z,74.86
2023-05-19T12:09:35.775Z,75.03
2023-05-19T12:12:03.055Z,73.55
2023-05-19T12:14:30.234Z,74.67
2023-05-19T12:16:57.602Z,75.22
2023-05-19T12:19:25.988Z,73.74
2023-05-19T12:21:53.276Z,73.58
2023-05-19T12:24:20.740Z,74.37
2023-05-19T12:26:50.248Z,73.90
2023-05-19T12:29:17.314Z,74.65
2023-05-19T12:31:46.586Z,73.68
2023-05-19T12:34:13.395Z,74.19
2023-05-19T12:36:41.480Z,74.74
2023-05-19T12:39:08.315Z,75.16
2023-05-19T12:41:35.036Z,76.26
2023-05-19T12:44:01.756Z,75.15
2023-05-19T12:46:29.030Z,75.50
2023-05-19T12:49:00.774Z,75.91
2023-05-19T12:51:27.549Z,75.77
2023-05-19T12:53:54.262Z,75.50
2023-05-19T12:56:21.315Z,75.48
2023-05-19T12:58:48.055Z,76.44
2023-05-19T13:01:18.674Z,76.59
2023-05-19T13:03:46.197Z,76.72
2023-05-19T13:06:13.148Z,77.35
2023-05-19T13:08:41.548Z,78.00
2023-05-19T13:11:08.297Z,79.76
2023-05-19T13:13:35.047Z,81.18
2023-05-19T13:16:01.824Z,81.96
2023-05-19T13:18:32.130Z,81.12
2023-05-19T13:20:58.978Z,82.56
2023-05-19T13:23:26.357Z,81.49
2023-05-19T13:25:53.185Z,81.58
2023-05-19T13:28:19.916Z,82.19
2023-05-19T13:30:46.797Z,82.58
2023-05-19T13:33:13.683Z,83.11
2023-05-19T13:35:40.548Z,84.19
2023-05-19T13:38:09.655Z,84.15
2023-05-19T13:40:36.913Z,84.54
2023-05-19T13:43:04.102Z,85.84
2023-05-19T13:45:30.933Z,86.03
2023-05-19T13:47:57.760Z,86.35
2023-05-19T13:50:24.570Z,86.30
2023-05-19T13:52:51.328Z,86.30
2023-05-19T13:55:18.348Z,87.49
2023-05-19T13:57:45.085Z,88.03
2023-05-19T14:00:12.190Z,89.32
2023-05-19T14:02:39.931Z,89.28
2023-05-19T14:05:07.581Z,89.15
2023-05-19T14:07:37.116Z,90.38
2023-05-19T14:10:06.832Z,90.69
2023-05-19T14:12:45.125Z,91.53
2023-05-19T14:15:21.474Z,92.45
2023-05-19T14:17:49.270Z,93.13
2023-05-19T14:20:16.197Z,93.28
2023-05-19T14:22:43.035Z,92.88
2023-05-19T14:25:09.977Z,92.80
2023-05-19T14:27:36.877Z,93.18
2023-05-19T14:30:03.903Z,92.34
2023-05-19T14:32:30.792Z,93.30
2023-05-19T14:34:57.608Z,94.62
2023-05-19T14:37:26.602Z,94.80
2023-05-19T14:39:53.641Z,94.92
2023-05-19T14:42:20.466Z,95.46
2023-05-19T14:44:47.355Z,96.27
2023-05-19T14:47:14.225Z,97.37
2023-05-19T14:49:41.074Z,97.25
2023-05-19T14:52:07.832Z,97.08
2023-05-19T14:54:34.672Z,96.99
2023-05-19T14:57:01.704Z,97.15
2023-05-19T14:59:29.739Z,98.06
2023-05-19T15:01:56.558Z,99.41
2023-05-19T15:04:23.499Z,100.00
2023-05-19T15:07:05.868Z,99.99
2023-05-19T15:09:36.835Z,99.95
2023-05-19T15:12:03.653Z,99.07
2023-05-19T15:14:30.979Z,99.77
2023-05-19T15:16:58.539Z,99.88
2023-05-19T15:19:26.187Z,100.00
2023-05-19T15:21:53.199Z,99.36
2023-05-19T15:24:20.062Z,98.69
2023-05-19T15:26:47.308Z,97.21
2023-05-19T15:29:14.186Z,97.37
2023-05-19T15:31:41.260Z,95.91
2023-05-19T15:34:08.386Z,96.45
2023-05-19T15:36:35.666Z,96.14
2023-05-19T15:39:03.793Z,96.42
2023-05-19T15:41:30.817Z,95.79
2023-05-19T15:44:00.212Z,96.66
2023-05-19T15:46:27.416Z,96.91
2023-05-19T15:48:54.307Z,97.74
2023-05-19T15:51:21.210Z,98.13
2023-05-19T15:53:48.146Z,97.81
2023-05-19T15:56:15.169Z,98.13
2023-05-19T15:58:42.174Z,99.06
2023-05-19T16:01:08.974Z,100.00
2023-05-19T16:03:35.903Z,99.04
2023-05-19T16:06:16.773Z,99.81
2023-05-19T16:08:43.529Z,99.67
2023-05-19T16:11:10.562Z,99.71
2023-05-19T16:13:37.279Z,99.46
2023-05-19T16:16:04.259Z,98.75
2023-05-19T16:18:31.075Z,99.41
2023-05-19T16:20:57.885Z,99.63
2023-05-19T16:23:25.114Z,100.00
2023-05-19T16:25:52.335Z,100.00
2023-05-19T16:28:19.489Z,100.00
2023-05-19T16:30:46.328Z,100.00
2023-05-19T16:33:13.188Z,100.00
2023-05-19T16:35:40.058Z,100.00
2023-05-19T16:38:06.916Z,100.00
2023-05-19T16:40:33.937Z,100.00
2023-05-19T16:43:01.160Z,100.00
2023-05-19T16:45:27.964Z,100.00
2023-05-19T16:47:54.904Z,100.00
2023-05-19T16:50:21.667Z,100.00
2023-05-19T16:52:48.470Z,100.00
2023-05-19T16:55:19.734Z,100.00
2023-05-19T16:57:47.063Z,100.00
2023-05-19T17:00:14.605Z,100.00
2023-05-19T17:02:41.566Z,100.00
2023-05-19T17:05:08.876Z,100.00
2023-05-19T17:07:35.692Z,100.00
2023-05-19T17:10:02.472Z,100.00
2023-05-19T17:12:29.259Z,100.00
2023-05-19T17:14:57.100Z,100.00
2023-05-19T17:17:23.895Z,100.00
2023-05-19T17:19:50.728Z,100.00
2023-05-19T17:22:17.552Z,100.00
2023-05-19T17:24:44.425Z,100.00
2023-05-19T17:27:11.201Z,100.00
2023-05-19T17:29:37.937Z,100.00
2023-05-19T17:32:05.004Z,100.00
2023-05-19T17:34:31.870Z,100.00
2023-05-19T17:36:58.613Z,100.00
2023-05-19T17:39:25.626Z,100.00
2023-05-19T17:41:52.410Z,100.00
2023-05-19T17:44:19.221Z,100.00
2023-05-19T17:46:46.047Z,100.00
2023-05-19T17:49:13.701Z,100.00
2023-05-19T17:51:40.950Z,100.00
2023-05-19T17:54:08.216Z,100.00
2023-05-19T17:56:35.084Z,100.00
2023-05-19T17:59:02.054Z,100.00
2023-05-19T18:01:29.096Z,100.00
2023-05-19T18:03:56.598Z,100.00
2023-05-19T18:06:23.464Z,100.00
2023-05-19T18:08:51.655Z,100.00
2023-05-19T18:11:18.901Z,100.00
2023-05-19T18:13:45.759Z,100.00
2023-05-19T18:16:12.538Z,100.00
2023-05-19T18:18:43.409Z,100.00
2023-05-19T18:21:17.734Z,100.00
2023-05-19T18:23:48.050Z,100.00
2023-05-19T18:26:15.542Z,100.00
2023-05-19T18:28:42.473Z,100.00
2023-05-19T18:31:11.000Z,100.00
2023-05-19T18:33:37.779Z,100.00
2023-05-19T18:36:04.764Z,100.00
2023-05-19T18:38:31.522Z,100.00
2023-05-19T18:40:59.224Z,100.00
2023-05-19T18:43:26.086Z,100.00
2023-05-19T18:45:53.009Z,100.00
2023-05-19T18:48:20.323Z,100.00
2023-05-19T18:50:47.171Z,100.00
2023-05-19T18:53:13.898Z,100.00
2023-05-19T18:55:40.837Z,100.00
2023-05-19T18:58:07.740Z,100.00
2023-05-19T19:00:37.590Z,100.00
2023-05-19T19:03:04.540Z,100.00
2023-05-19T19:05:31.432Z,100.00
2023-05-19T19:07:58.265Z,100.00
2023-05-19T19:10:25.066Z,100.00
2023-05-19T19:12:51.870Z,100.00
2023-05-19T19:15:18.640Z,100.00
2023-05-19T19:17:45.802Z,100.00
2023-05-19T19:20:13.038Z,100.00
2023-05-19T19:22:39.828Z,100.00
2023-05-19T19:25:06.901Z,100.00
2023-05-19T19:27:35.606Z,100.00
2023-05-19T19:30:02.576Z,100.00
2023-05-19T19:32:31.593Z,100.00
2023-05-19T19:34:58.436Z,100.00
2023-05-19T19:37:25.216Z,100.00
2023-05-19T19:39:52.009Z,100.00
2023-05-19T19:42:19.002Z,100.00
2023-05-19T19:44:46.051Z,100.00
2023-05-19T19:47:12.811Z,100.00
2023-05-19T19:49:39.653Z,100.00
2023-05-19T19:52:06.437Z,100.00
2023-05-19T19:54:33.189Z,100.00
2023-05-19T19:56:59.921Z,100.00
2023-05-19T19:59:27.001Z,100.00
2023-05-19T20:01:53.878Z,100.00
2023-05-19T20:04:20.856Z,100.00
2023-05-19T20:06:47.825Z,100.00
2023-05-19T20:09:14.641Z,100.00
2023-05-19T20:11:41.413Z,100.00
2023-05-19T20:14:08.193Z,100.00
2023-05-19T20:16:34.967Z,100.00
2023-05-19T20:19:01.814Z,100.00
2023-05-19T20:21:28.730Z,100.00
2023-05-19T20:23:55.489Z,100.00
2023-05-19T20:26:22.611Z,100.00
2023-05-19T20:28:49.384Z,100.00
2023-05-19T20:31:16.207Z,100.00
2023-05-19T20:33:43.024Z,100.00
2023-05-19T20:36:11.060Z,100.00
2023-05-19T20:38:37.876Z,100.00
2023-05-19T20:41:04.786Z,100.00
2023-05-19T20:43:32.175Z,100.00
2023-05-19T20:45:59.831Z,100.00
2023-05-19T20:48:26.833Z,100.00
2023-05-19T20:50:54.172Z,100.00
2023-05-19T20:53:21.668Z,100.00
2023-05-19T20:55:48.586Z,100.00
2023-05-19T20:58:15.545Z,100.00
2023-05-19T21:00:42.286Z,100.00
2023-05-19T21:03:09.164Z,100.00
2023-05-19T21:05:36.352Z,100.00
2023-05-19T21:08:03.230Z,100.00
2023-05-19T21:10:29.986Z,100.00
2023-05-19T21:12:58.867Z,100.00
2023-05-19T21:15:27.038Z,100.00
2023-05-19T21:17:53.902Z,100.00
2023-05-19T21:20:20.933Z,100.00
2023-05-19T21:22:47.704Z,100.00
2023-05-19T21:25:14.645Z,100.00
2023-05-19T21:27:41.475Z,100.00
2023-05-19T21:30:09.850Z,100.00
2023-05-19T21:32:36.669Z,100.00
2023-05-19T21:35:03.799Z,100.00
2023-05-19T21:37:30.537Z,100.00
2023-05-19T21:39:57.465Z,100.00
2023-05-19T21:42:24.215Z,100.00
2023-05-19T21:44:51.111Z,100.00
2023-05-19T21:47:17.868Z,100.00
2023-05-19T21:49:44.634Z,100.00
2023-05-19T21:52:11.506Z,100.00
2023-05-19T21:54:38.300Z,100.00
2023-05-19T21:57:05.633Z,100.00
2023-05-19T21:59:32.465Z,100.00
2023-05-19T22:01:59.295Z,100.00
2023-05-19T22:04:26.676Z,100.00
2023-05-19T22:06:53.456Z,100.00
2023-05-19T22:09:20.280Z,100.00
2023-05-19T22:11:47.130Z,100.00
2023-05-19T22:14:14.096Z,100.00
2023-05-19T22:16:41.126Z,100.00
2023-05-19T22:19:08.293Z,100.00
2023-05-19T22:21:35.175Z,100.00
2023-05-19T22:24:02.166Z,100.00
2023-05-19T22:26:29.036Z,100.00
2023-05-19T22:28:55.921Z,100.00
2023-05-19T22:31:22.713Z,100.00
2023-05-19T22:33:49.549Z,100.00
2023-05-19T22:36:16.574Z,100.00
2023-05-19T22:38:43.468Z,100.00
2023-05-19T22:41:10.301Z,100.00
2023-05-19T22:43:37.154Z,100.00
2023-05-19T22:46:04.158Z,100.00
2023-05-19T22:48:31.677Z,100.00
2023-05-19T22:50:58.471Z,100.00
2023-05-19T22:53:25.290Z,100.00
2023-05-19T22:55:52.157Z,100.00
2023-05-19T22:58:19.053Z,100.00
2023-05-19T23:00:46.010Z,100.00
2023-05-19T23:03:12.903Z,100.00
2023-05-19T23:05:40.345Z,100.00
2023-05-19T23:08:07.198Z,100.00
2023-05-19T23:10:34.026Z,100.00
2023-05-19T23:13:00.839Z,100.00
2023-05-19T23:15:27.631Z,100.00
2023-05-19T23:17:54.508Z,100.00
2023-05-19T23:20:21.326Z,100.00
2023-05-19T23:22:48.145Z,100.00
2023-05-19T23:25:15.016Z,100.00
2023-05-19T23:27:41.840Z,100.00
2023-05-19T23:30:09.138Z,100.00
2023-05-19T23:32:36.110Z,100.00
2023-05-19T23:35:16.814Z,100.00
2023-05-19T23:37:43.643Z,100.00
2023-05-19T23:40:10.680Z,100.00
2023-05-19T23:42:37.539Z,100.00
2023-05-19T23:45:04.844Z,100.00
2023-05-19T23:47:31.637Z,100.00
2023-05-19T23:49:58.570Z,100.00
2023-05-19T23:52:25.339Z,100.00
2023-05-19T23:54:52.122Z,100.00
2023-05-19T23:57:18.859Z,100.00
2023-05-19T23:59:45.807Z,100.00
